Time;durP1;ratioP1;P1;durP2;ratioP2;P2;SDS_P1;SDS_P2;PMS_P1;PMS_P2;Temp;Humidity;BMP_temperature;BMP_pressure;BME280_temperature;BME280_humidity;BME280_pressure;Samples;Min_cycle;Max_cycle;Signal;HPM_P1;HPM_P2
2022/10/07 00:02:16;;;;;;;33.00;28.23;;;23.30;99.90;;;;;;5039216;28;20238;-96
2022/10/07 00:04:47;;;;;;;32.23;28.73;;;23.10;99.90;;;;;;5075213;28;20203;-96
2022/10/07 00:07:20;;;;;;;33.37;28.90;;;23.10;99.90;;;;;;5066342;28;20213;-96
2022/10/07 00:09:53;;;;;;;34.40;29.20;;;23.10;99.90;;;;;;5053689;28;20228;-96
2022/10/07 00:12:25;;;;;;;34.60;29.83;;;23.10;99.90;;;;;;5048423;28;20623;-96
2022/10/07 00:14:59;;;;;;;35.57;29.93;;;23.00;99.90;;;;;;5065748;28;20228;-96
2022/10/07 00:17:31;;;;;;;33.90;30.07;;;23.00;99.90;;;;;;5068994;28;20227;-96
2022/10/07 00:20:03;;;;;;;36.03;30.63;;;22.90;99.90;;;;;;5047044;28;20213;-96
2022/10/07 00:22:35;;;;;;;34.00;30.27;;;22.80;99.90;;;;;;5083226;28;20218;-96
2022/10/07 00:25:07;;;;;;;37.10;33.10;;;22.70;99.90;;;;;;5089735;28;20199;-96
2022/10/07 00:27:40;;;;;;;38.47;32.63;;;22.70;99.90;;;;;;5076656;28;20216;-96
2022/10/07 00:30:15;;;;;;;41.00;32.67;;;22.60;99.90;;;;;;5071817;28;20234;-96
2022/10/07 00:32:47;;;;;;;36.93;32.87;;;22.50;99.90;;;;;;5070798;28;20200;-96
2022/10/07 00:35:19;;;;;;;38.27;32.87;;;22.40;99.90;;;;;;5074781;28;20247;-96
2022/10/07 00:37:51;;;;;;;38.07;33.07;;;22.30;99.90;;;;;;5075747;28;20223;-96
2022/10/07 00:40:23;;;;;;;40.40;33.70;;;22.20;99.90;;;;;;5077860;28;20240;-96
2022/10/07 00:42:55;;;;;;;37.53;32.10;;;22.10;99.90;;;;;;5083542;28;20212;-96
2022/10/07 00:45:30;;;;;;;34.63;30.83;;;22.10;99.90;;;;;;5069716;28;20239;-96
2022/10/07 00:48:02;;;;;;;36.33;32.03;;;22.00;99.90;;;;;;5060566;28;20208;-90
2022/10/07 00:50:33;;;;;;;36.03;30.60;;;21.90;99.90;;;;;;5060143;28;20196;-96
2022/10/07 00:53:05;;;;;;;40.23;32.57;;;21.80;99.90;;;;;;5074116;28;20205;-95
2022/10/07 00:55:36;;;;;;;34.47;30.77;;;21.70;99.90;;;;;;5057359;28;20215;-96
2022/10/07 00:58:08;;;;;;;34.23;29.90;;;21.60;99.90;;;;;;5063362;28;20231;-96
2022/10/07 01:00:47;;;;;;;36.27;30.03;;;21.50;99.90;;;;;;5062569;28;20242;-96
2022/10/07 01:03:19;;;;;;;35.13;29.43;;;21.40;99.90;;;;;;5059528;28;20208;-96
2022/10/07 01:05:50;;;;;;;34.20;27.90;;;21.30;99.90;;;;;;5056788;28;20204;-90
2022/10/07 01:08:23;;;;;;;32.00;28.33;;;21.20;99.90;;;;;;5055897;28;20212;-91
2022/10/07 01:11:02;;;;;;;31.97;28.57;;;21.00;99.90;;;;;;5041944;28;20217;-95
2022/10/07 01:13:41;;;;;;;32.10;28.67;;;20.90;99.90;;;;;;5057554;28;20208;-94
2022/10/07 01:16:19;;;;;;;30.87;26.83;;;20.60;99.90;;;;;;5058621;28;20244;-96
2022/10/07 01:18:56;;;;;;;31.67;27.80;;;20.50;99.90;;;;;;5057713;28;20236;-95
2022/10/07 01:21:40;;;;;;;32.23;28.17;;;20.40;99.90;;;;;;5058367;28;20208;-94
2022/10/07 01:24:25;;;;;;;30.93;26.03;;;20.30;99.90;;;;;;5041781;28;20208;-95
2022/10/07 01:27:14;;;;;;;29.50;26.40;;;20.20;99.90;;;;;;5058715;28;20208;-94
2022/10/07 01:29:54;;;;;;;29.30;26.23;;;20.00;99.90;;;;;;5059371;28;20213;-96
2022/10/07 01:32:31;;;;;;;32.33;26.83;;;19.90;99.90;;;;;;5059457;28;20212;-94
2022/10/07 01:35:05;;;;;;;28.50;24.90;;;19.70;99.90;;;;;;5057998;28;20203;-94
2022/10/07 01:37:41;;;;;;;29.10;25.07;;;19.60;99.90;;;;;;5059348;28;20648;-95
2022/10/07 01:40:17;;;;;;;29.23;25.17;;;19.50;99.90;;;;;;5057893;28;20216;-94
2022/10/07 01:42:52;;;;;;;31.13;25.63;;;19.40;99.90;;;;;;5055937;28;20211;-95
2022/10/07 01:45:28;;;;;;;28.60;24.60;;;19.20;99.90;;;;;;5040239;28;20216;-95
2022/10/07 01:48:01;;;;;;;27.73;24.67;;;19.10;99.90;;;;;;5057986;28;20211;-94
2022/10/07 01:50:33;;;;;;;29.37;24.80;;;19.00;99.90;;;;;;5057449;28;20204;-90
2022/10/07 01:53:33;;;;;;;29.13;24.13;;;18.90;99.90;;;;;;5057683;28;20534;-96
2022/10/07 01:56:20;;;;;;;29.30;24.83;;;18.90;99.90;;;;;;5058010;28;20207;-95
2022/10/07 01:59:18;;;;;;;26.43;23.63;;;18.90;99.90;;;;;;5058178;28;20770;-96
2022/10/07 02:02:02;;;;;;;29.80;24.90;;;18.70;99.90;;;;;;5055614;28;20211;-96
2022/10/07 02:04:45;;;;;;;27.40;24.40;;;18.70;99.90;;;;;;5054465;28;20661;-96
2022/10/07 02:07:31;;;;;;;30.27;23.77;;;18.60;99.90;;;;;;5077279;28;20215;-96
2022/10/07 02:10:13;;;;;;;29.57;24.17;;;18.50;99.90;;;;;;5048833;28;20653;-95
2022/10/07 02:12:50;;;;;;;32.70;25.83;;;18.50;99.90;;;;;;5055108;28;20231;-95
2022/10/07 02:15:28;;;;;;;31.83;24.30;;;18.40;99.90;;;;;;5054425;28;20215;-95
2022/10/07 02:18:04;;;;;;;30.70;24.03;;;18.30;99.90;;;;;;5050784;28;20321;-96
2022/10/07 02:20:40;;;;;;;30.57;22.93;;;18.20;99.90;;;;;;5059449;28;20676;-96
2022/10/07 02:23:14;;;;;;;25.53;22.77;;;18.20;99.90;;;;;;5055434;28;20222;-95
2022/10/07 02:25:48;;;;;;;27.80;23.70;;;18.10;99.90;;;;;;5042237;28;20208;-95
2022/10/07 02:28:24;;;;;;;27.83;24.27;;;18.00;99.90;;;;;;5066326;28;20211;-96
2022/10/07 02:31:02;;;;;;;26.63;23.40;;;18.00;99.90;;;;;;5075462;28;20215;-94
2022/10/07 02:33:37;;;;;;;30.13;24.83;;;18.00;99.90;;;;;;5060675;28;20209;-96
2022/10/07 02:36:16;;;;;;;26.27;23.57;;;17.90;99.90;;;;;;5057630;28;20201;-95
2022/10/07 02:38:47;;;;;;;27.90;23.40;;;17.90;99.90;;;;;;5057120;28;20212;-96
2022/10/07 02:41:33;;;;;;;25.70;22.83;;;17.80;99.90;;;;;;5055951;28;20375;-94
2022/10/07 02:44:15;;;;;;;26.33;22.80;;;17.80;99.90;;;;;;5022909;28;20323;-93
2022/10/07 02:46:53;;;;;;;31.17;22.47;;;17.70;99.90;;;;;;5058201;28;20215;-95
2022/10/07 02:49:26;;;;;;;27.80;22.00;;;17.70;99.90;;;;;;5056342;28;20212;-96
2022/10/07 02:52:01;;;;;;;28.40;22.77;;;17.70;99.90;;;;;;5038042;28;20207;-96
2022/10/07 02:54:36;;;;;;;27.23;21.90;;;17.70;99.90;;;;;;5056054;28;20204;-94
2022/10/07 02:57:08;;;;;;;25.40;21.57;;;17.60;99.90;;;;;;5056186;28;20730;-93
2022/10/07 02:59:40;;;;;;;26.07;22.20;;;17.60;99.90;;;;;;5055421;28;20240;-94
2022/10/07 03:02:17;;;;;;;24.83;22.03;;;17.60;99.90;;;;;;5054772;28;20216;-95
2022/10/07 03:04:48;;;;;;;24.93;22.23;;;17.50;99.90;;;;;;5055056;28;20212;-94
2022/10/07 03:07:20;;;;;;;26.03;21.57;;;17.50;99.90;;;;;;5054881;28;20212;-95
2022/10/07 03:09:51;;;;;;;24.43;21.07;;;17.50;99.90;;;;;;5045782;28;20643;-95
2022/10/07 03:12:24;;;;;;;26.93;20.70;;;17.40;99.90;;;;;;5053945;28;20595;-94
2022/10/07 03:14:57;;;;;;;25.93;20.33;;;17.30;99.90;;;;;;5048313;28;20217;-94
2022/10/07 03:17:31;;;;;;;23.27;20.07;;;17.30;99.90;;;;;;5041362;28;20189;-91
2022/10/07 03:20:02;;;;;;;27.17;20.67;;;17.30;99.90;;;;;;5056257;28;20234;-94
2022/10/07 03:22:33;;;;;;;23.50;20.03;;;17.20;99.90;;;;;;5051700;28;20231;-94
2022/10/07 03:25:05;;;;;;;24.13;20.30;;;17.20;99.90;;;;;;5059023;28;20211;-92
2022/10/07 03:27:37;;;;;;;24.67;19.77;;;17.10;99.90;;;;;;5058263;28;20593;-94
2022/10/07 03:30:09;;;;;;;22.57;20.20;;;17.10;99.90;;;;;;5057374;28;20208;-94
2022/10/07 03:32:43;;;;;;;26.23;19.40;;;17.10;99.90;;;;;;5055121;28;20568;-92
2022/10/07 03:35:15;;;;;;;28.00;20.00;;;17.00;99.90;;;;;;5054297;28;20200;-93
2022/10/07 03:37:47;;;;;;;23.67;19.50;;;17.00;99.90;;;;;;5054323;28;20218;-93
2022/10/07 03:40:19;;;;;;;23.57;19.43;;;17.00;99.90;;;;;;5055064;28;20211;-93
2022/10/07 03:42:50;;;;;;;26.20;19.73;;;16.90;99.90;;;;;;5042636;28;20222;-93
2022/10/07 03:45:21;;;;;;;26.30;19.53;;;16.90;99.90;;;;;;5056222;28;20212;-94
2022/10/07 03:47:54;;;;;;;23.20;19.43;;;16.90;99.90;;;;;;5055909;28;20209;-93
2022/10/07 03:50:25;;;;;;;21.17;18.73;;;16.90;99.90;;;;;;5050772;28;20204;-94
2022/10/07 03:52:56;;;;;;;25.50;18.57;;;16.80;99.90;;;;;;5056918;28;20208;-93
2022/10/07 03:55:28;;;;;;;19.47;17.47;;;16.80;99.90;;;;;;5058590;28;20215;-93
2022/10/07 03:57:59;;;;;;;22.17;17.77;;;16.80;99.90;;;;;;5064019;28;20223;-94
2022/10/07 04:00:31;;;;;;;21.53;16.70;;;16.70;99.90;;;;;;5072529;28;20271;-94
2022/10/07 04:03:04;;;;;;;23.67;16.87;;;16.70;99.90;;;;;;5057418;28;20204;-93
2022/10/07 04:05:36;;;;;;;19.23;16.80;;;16.70;99.90;;;;;;5068093;28;20212;-93
2022/10/07 04:08:08;;;;;;;20.07;17.23;;;16.70;99.90;;;;;;5049664;28;20185;-92
2022/10/07 04:10:40;;;;;;;20.87;16.70;;;16.60;99.90;;;;;;5044548;28;20215;-94
2022/10/07 04:13:12;;;;;;;21.10;16.67;;;16.60;99.90;;;;;;5055849;28;20205;-94
2022/10/07 04:15:43;;;;;;;20.17;16.37;;;16.60;99.90;;;;;;5062075;28;20210;-94
2022/10/07 04:18:16;;;;;;;20.53;17.50;;;16.60;99.90;;;;;;5058690;28;20291;-94
2022/10/07 04:20:47;;;;;;;18.43;16.43;;;16.50;99.90;;;;;;5058722;28;20219;-95
2022/10/07 04:23:19;;;;;;;18.00;16.10;;;16.50;99.90;;;;;;5058890;28;20238;-93
2022/10/07 04:25:50;;;;;;;18.80;16.57;;;16.50;99.90;;;;;;5057755;28;20212;-94
2022/10/07 04:28:24;;;;;;;18.47;16.57;;;16.40;99.90;;;;;;5058851;28;20215;-92
2022/10/07 04:30:56;;;;;;;21.83;16.70;;;16.40;99.90;;;;;;5058852;28;20213;-94
2022/10/07 04:33:29;;;;;;;21.10;16.90;;;16.30;99.90;;;;;;5071671;28;20208;-93
2022/10/07 04:36:06;;;;;;;21.10;16.70;;;16.20;99.90;;;;;;5078225;28;20211;-94
2022/10/07 04:38:38;;;;;;;18.70;16.03;;;16.20;99.90;;;;;;5061819;28;20188;-94
2022/10/07 04:41:09;;;;;;;24.10;16.53;;;16.20;99.90;;;;;;5077949;28;20204;-93
2022/10/07 04:43:41;;;;;;;18.70;15.60;;;16.20;99.90;;;;;;5066196;28;20209;-93
2022/10/07 04:46:13;;;;;;;18.67;16.03;;;16.20;99.90;;;;;;5058445;28;20239;-93
2022/10/07 04:48:47;;;;;;;19.87;16.00;;;16.10;99.90;;;;;;5057784;28;20200;-94
2022/10/07 04:51:18;;;;;;;21.60;16.47;;;16.10;99.90;;;;;;5058918;28;20185;-94
2022/10/07 04:53:53;;;;;;;19.60;15.63;;;16.10;99.90;;;;;;5069629;28;20205;-89
2022/10/07 04:56:27;;;;;;;21.00;16.07;;;16.00;99.90;;;;;;5078880;28;20196;-93
2022/10/07 04:58:57;;;;;;;26.97;17.17;;;16.00;99.90;;;;;;5067809;28;20231;-93
2022/10/07 05:01:29;;;;;;;18.37;16.40;;;16.00;99.90;;;;;;5059388;28;20212;-94
2022/10/07 05:04:04;;;;;;;19.97;16.33;;;16.00;99.90;;;;;;5057032;28;20220;-94
2022/10/07 05:06:35;;;;;;;21.77;16.80;;;15.90;99.90;;;;;;5057863;28;20208;-94
2022/10/07 05:09:07;;;;;;;19.83;16.50;;;15.90;99.90;;;;;;5057783;28;20208;-94
2022/10/07 05:11:38;;;;;;;18.70;16.80;;;15.80;99.90;;;;;;5057689;28;20211;-92
2022/10/07 05:14:10;;;;;;;21.17;18.00;;;15.80;99.90;;;;;;5059080;28;20973;-92
2022/10/07 05:16:42;;;;;;;19.03;16.97;;;15.80;99.90;;;;;;5058987;28;20208;-93
2022/10/07 05:19:15;;;;;;;19.23;17.03;;;15.70;99.90;;;;;;5059194;28;20335;-93
2022/10/07 05:21:46;;;;;;;20.53;17.73;;;15.70;99.90;;;;;;5057783;28;20224;-94
2022/10/07 05:24:18;;;;;;;19.13;17.10;;;15.60;99.90;;;;;;5057701;28;20215;-94
2022/10/07 05:26:51;;;;;;;21.67;16.67;;;15.70;99.90;;;;;;5057305;28;20223;-93
2022/10/07 05:29:22;;;;;;;20.50;17.57;;;15.60;99.90;;;;;;5040529;28;20216;-92
2022/10/07 05:31:55;;;;;;;19.70;17.00;;;15.60;99.90;;;;;;5056320;28;20327;-94
2022/10/07 05:34:35;;;;;;;18.87;16.83;;;15.60;99.90;;;;;;5056881;28;20220;-92
2022/10/07 05:37:08;;;;;;;18.87;16.87;;;15.60;99.90;;;;;;5036954;28;20236;-93
2022/10/07 05:39:40;;;;;;;20.33;17.40;;;15.50;99.90;;;;;;5036866;28;20638;-93
2022/10/07 05:42:12;;;;;;;20.43;18.27;;;15.50;99.90;;;;;;5018983;28;20205;-94
2022/10/07 05:44:43;;;;;;;22.00;17.50;;;15.50;99.90;;;;;;5058319;28;20235;-93
2022/10/07 05:47:17;;;;;;;21.27;17.33;;;15.40;99.90;;;;;;5039623;28;20238;-93
2022/10/07 05:49:51;;;;;;;23.67;18.17;;;15.40;99.90;;;;;;5058505;28;20212;-94
2022/10/07 05:52:23;;;;;;;19.87;17.73;;;15.40;99.90;;;;;;5060244;28;20196;-93
2022/10/07 05:54:54;;;;;;;21.03;17.90;;;15.40;99.90;;;;;;5058469;28;20732;-94
2022/10/07 05:57:26;;;;;;;21.23;17.27;;;15.30;99.90;;;;;;5055817;28;20214;-94
2022/10/07 05:59:57;;;;;;;21.17;18.00;;;15.30;99.90;;;;;;5040759;28;20235;-94
2022/10/07 06:02:28;;;;;;;21.40;17.80;;;15.30;99.90;;;;;;5035719;28;20201;-94
2022/10/07 06:05:02;;;;;;;18.93;16.93;;;15.30;99.90;;;;;;5042694;28;20207;-94
2022/10/07 06:07:33;;;;;;;19.53;17.40;;;15.30;99.90;;;;;;5043184;28;20481;-93
2022/10/07 06:13:11;;;;;;;18.93;16.93;;;15.20;99.90;;;;;;5056759;28;20254;-93
2022/10/07 06:15:42;;;;;;;19.77;17.20;;;15.20;99.90;;;;;;5060580;28;20576;-93
2022/10/07 06:18:14;;;;;;;23.13;17.93;;;15.10;99.90;;;;;;5056233;28;20209;-93
2022/10/07 06:20:56;;;;;;;19.03;17.13;;;15.10;99.90;;;;;;5055006;28;20258;-93
2022/10/07 06:23:27;;;;;;;19.07;17.07;;;15.10;99.90;;;;;;5057211;28;20231;-93
2022/10/07 06:26:01;;;;;;;20.50;16.57;;;15.10;99.90;;;;;;5040238;28;20570;-94
2022/10/07 06:28:34;;;;;;;20.23;17.60;;;15.10;99.90;;;;;;5056766;28;20219;-93
2022/10/07 06:31:06;;;;;;;22.43;18.37;;;15.00;99.90;;;;;;5055751;28;20209;-93
2022/10/07 06:33:39;;;;;;;20.83;18.23;;;15.00;99.90;;;;;;5055284;28;20213;-94
2022/10/07 06:36:14;;;;;;;23.33;17.87;;;15.00;99.90;;;;;;5055240;28;20220;-94
2022/10/07 06:38:46;;;;;;;21.93;18.40;;;14.90;99.90;;;;;;5038493;28;20200;-93
2022/10/07 06:41:18;;;;;;;23.10;17.50;;;14.90;99.90;;;;;;5039788;28;20240;-93
2022/10/07 06:43:50;;;;;;;21.33;17.33;;;14.80;99.90;;;;;;5034719;28;20205;-94
2022/10/07 06:46:21;;;;;;;22.77;17.53;;;14.80;99.90;;;;;;5035904;28;20209;-94
2022/10/07 06:48:54;;;;;;;20.97;16.80;;;14.80;99.90;;;;;;5036490;28;20550;-94
2022/10/07 06:51:27;;;;;;;22.43;17.17;;;14.80;99.90;;;;;;5036151;28;20214;-93
2022/10/07 06:53:59;;;;;;;20.87;17.60;;;14.80;99.90;;;;;;5054928;28;20197;-93
2022/10/07 06:56:30;;;;;;;18.53;16.53;;;14.80;99.90;;;;;;5055293;28;20671;-92
2022/10/07 06:59:02;;;;;;;19.53;17.53;;;14.80;99.90;;;;;;5055655;28;20268;-93
2022/10/07 07:01:34;;;;;;;19.90;15.47;;;14.70;99.90;;;;;;5055358;28;20236;-94
2022/10/07 07:04:05;;;;;;;20.90;17.37;;;14.70;99.90;;;;;;5054992;28;20212;-93
2022/10/07 07:06:40;;;;;;;18.93;16.37;;;14.70;99.90;;;;;;5056144;28;20201;-94
2022/10/07 07:09:11;;;;;;;20.30;16.67;;;14.70;99.90;;;;;;5058205;28;20218;-93
2022/10/07 07:11:45;;;;;;;20.33;16.67;;;14.60;99.90;;;;;;5054704;28;20204;-94
2022/10/07 07:14:18;;;;;;;19.87;16.53;;;14.60;99.90;;;;;;5060621;28;20226;-94
2022/10/07 07:16:49;;;;;;;19.97;17.43;;;14.60;99.90;;;;;;5058156;28;20224;-94
2022/10/07 07:19:20;;;;;;;22.50;16.70;;;14.60;99.90;;;;;;5058422;28;20235;-94
2022/10/07 07:21:53;;;;;;;17.90;16.00;;;14.60;99.90;;;;;;5062472;28;20228;-93
2022/10/07 07:24:27;;;;;;;20.40;16.40;;;14.50;99.90;;;;;;5057025;28;20204;-92
2022/10/07 07:26:58;;;;;;;22.57;18.00;;;14.50;99.90;;;;;;5057114;28;20227;-94
2022/10/07 07:29:29;;;;;;;23.07;17.37;;;14.50;99.90;;;;;;5055045;28;20204;-92
2022/10/07 07:32:03;;;;;;;18.70;16.27;;;14.50;99.90;;;;;;5054172;28;20209;-93
2022/10/07 07:34:36;;;;;;;19.80;16.33;;;14.50;99.90;;;;;;5055062;28;20212;-92
2022/10/07 07:37:09;;;;;;;21.23;17.40;;;14.40;99.90;;;;;;5056632;28;20208;-92
2022/10/07 07:39:41;;;;;;;21.77;18.23;;;14.40;99.90;;;;;;5062140;28;20196;-93
2022/10/07 07:42:12;;;;;;;21.50;17.93;;;14.40;99.90;;;;;;5071846;28;20220;-94
2022/10/07 07:44:44;;;;;;;20.30;16.50;;;14.30;99.90;;;;;;5074950;28;20499;-93
2022/10/07 07:47:16;;;;;;;24.07;17.10;;;14.30;99.90;;;;;;5043964;28;20271;-93
2022/10/07 07:49:47;;;;;;;23.83;17.43;;;14.30;99.90;;;;;;5080336;28;20264;-94
2022/10/07 07:52:21;;;;;;;20.13;16.50;;;14.30;99.90;;;;;;5062857;28;20219;-93
2022/10/07 07:54:56;;;;;;;19.87;16.20;;;14.30;99.90;;;;;;5059152;28;20212;-93
2022/10/07 07:57:28;;;;;;;19.00;16.37;;;14.30;99.90;;;;;;5058878;28;20211;-92
2022/10/07 08:00:00;;;;;;;19.13;15.77;;;14.20;99.90;;;;;;5058908;28;20296;-94
2022/10/07 08:02:32;;;;;;;21.23;17.00;;;14.20;99.90;;;;;;5057578;28;20216;-93
2022/10/07 08:05:04;;;;;;;20.50;16.30;;;14.20;99.90;;;;;;5054785;28;20205;-93
2022/10/07 08:07:38;;;;;;;22.23;16.40;;;14.10;99.90;;;;;;5052502;28;20291;-94
2022/10/07 08:10:10;;;;;;;19.37;15.93;;;14.10;99.90;;;;;;5058325;28;20227;-94
2022/10/07 08:12:42;;;;;;;18.33;14.70;;;14.10;99.90;;;;;;5057097;28;20238;-93
2022/10/07 08:15:14;;;;;;;22.30;15.73;;;14.10;99.90;;;;;;5040433;28;20307;-94
2022/10/07 08:17:45;;;;;;;27.93;16.07;;;14.10;99.90;;;;;;5053032;28;20220;-94
2022/10/07 08:20:18;;;;;;;17.37;14.93;;;14.00;99.90;;;;;;5059806;28;20200;-95
2022/10/07 08:22:52;;;;;;;18.57;15.20;;;14.00;99.90;;;;;;5058342;28;20267;-94
2022/10/07 08:25:28;;;;;;;17.97;15.50;;;14.00;99.90;;;;;;5057066;28;20212;-94
2022/10/07 08:28:00;;;;;;;17.47;14.97;;;14.00;99.90;;;;;;5041979;28;20211;-94
2022/10/07 08:30:31;;;;;;;24.43;16.47;;;14.00;99.90;;;;;;5058423;28;20208;-94
2022/10/07 08:33:04;;;;;;;16.93;15.13;;;14.00;99.90;;;;;;5057560;28;20216;-95
2022/10/07 08:35:36;;;;;;;19.17;15.53;;;14.00;99.90;;;;;;5057630;28;20657;-94
2022/10/07 08:38:11;;;;;;;21.10;15.60;;;14.00;99.90;;;;;;5058867;28;20204;-94
2022/10/07 08:40:49;;;;;;;17.03;15.23;;;14.00;99.90;;;;;;5058004;28;20645;-93
2022/10/07 08:43:24;;;;;;;16.97;14.77;;;13.90;99.90;;;;;;5057258;28;20204;-94
2022/10/07 08:45:56;;;;;;;19.30;15.53;;;13.90;99.90;;;;;;5057573;28;20208;-93
2022/10/07 08:48:32;;;;;;;18.20;15.73;;;13.80;99.90;;;;;;5057269;28;20227;-93
2022/10/07 08:51:14;;;;;;;16.27;14.53;;;13.80;99.90;;;;;;5057743;28;20207;-94
2022/10/07 08:53:51;;;;;;;17.77;14.87;;;13.90;99.90;;;;;;5041400;28;20212;-93
2022/10/07 08:56:25;;;;;;;23.27;15.33;;;13.90;99.90;;;;;;5058328;28;20432;-94
2022/10/07 08:59:10;;;;;;;20.03;15.10;;;13.90;99.90;;;;;;5057093;28;20204;-93
2022/10/07 09:02:01;;;;;;;16.50;13.90;;;13.90;99.90;;;;;;5038847;28;20247;-94
2022/10/07 09:04:44;;;;;;;17.20;14.37;;;13.90;99.90;;;;;;5057466;28;20242;-94
2022/10/07 09:07:18;;;;;;;16.73;14.37;;;13.80;99.90;;;;;;5040132;28;20539;-94
2022/10/07 09:09:58;;;;;;;16.30;14.40;;;13.80;99.90;;;;;;5060085;28;20207;-93
2022/10/07 09:12:37;;;;;;;17.07;15.10;;;13.80;99.90;;;;;;5039756;28;20196;-93
2022/10/07 09:15:19;;;;;;;19.60;15.23;;;13.80;99.90;;;;;;5057199;28;20223;-93
2022/10/07 09:17:56;;;;;;;19.70;15.67;;;13.70;99.90;;;;;;5060300;28;20207;-93
2022/10/07 09:20:33;;;;;;;16.73;14.30;;;13.70;99.90;;;;;;5059698;28;20226;-94
2022/10/07 09:23:08;;;;;;;16.47;14.77;;;13.70;99.90;;;;;;5058440;28;20254;-93
2022/10/07 09:25:42;;;;;;;18.13;15.57;;;13.60;99.90;;;;;;5061229;28;20212;-94
2022/10/07 09:28:16;;;;;;;15.53;13.77;;;13.50;99.90;;;;;;5074322;28;20251;-93
2022/10/07 09:30:48;;;;;;;15.60;14.10;;;13.50;99.90;;;;;;5077038;28;20197;-94
2022/10/07 09:33:22;;;;;;;16.20;14.53;;;13.50;99.90;;;;;;5070102;28;20220;-94
2022/10/07 09:35:56;;;;;;;18.33;14.30;;;13.50;99.90;;;;;;5063916;28;20227;-94
2022/10/07 09:38:33;;;;;;;19.77;15.03;;;13.50;99.90;;;;;;5062400;28;20215;-94
2022/10/07 09:41:18;;;;;;;15.53;13.83;;;13.50;99.90;;;;;;5065543;28;20216;-94
2022/10/07 09:44:10;;;;;;;15.73;13.67;;;13.40;99.90;;;;;;5065300;28;20205;-94
2022/10/07 09:46:46;;;;;;;17.67;14.50;;;13.40;99.90;;;;;;5062444;28;20212;-94
2022/10/07 09:49:42;;;;;;;18.33;14.33;;;13.40;99.90;;;;;;5023586;28;20248;-94
2022/10/07 09:52:22;;;;;;;17.60;14.40;;;13.30;99.90;;;;;;5057601;28;20208;-93
2022/10/07 09:54:55;;;;;;;17.23;15.37;;;13.40;99.90;;;;;;5039744;28;20223;-93
2022/10/07 09:57:33;;;;;;;16.83;13.63;;;13.30;99.90;;;;;;5039453;28;20215;-94
2022/10/07 10:00:25;;;;;;;19.00;13.93;;;13.30;99.90;;;;;;5039942;28;20212;-93
2022/10/07 10:03:03;;;;;;;16.17;14.13;;;13.30;99.90;;;;;;5055390;28;20323;-94
2022/10/07 10:05:37;;;;;;;16.13;14.43;;;13.20;99.90;;;;;;5055652;28;20243;-93
2022/10/07 10:08:22;;;;;;;17.93;13.93;;;13.20;99.90;;;;;;5056087;28;20230;-94
2022/10/07 10:10:55;;;;;;;15.20;13.70;;;13.20;99.90;;;;;;5054687;28;20204;-93
2022/10/07 10:13:34;;;;;;;16.97;14.77;;;13.20;99.90;;;;;;5054697;28;20211;-93
2022/10/07 10:16:07;;;;;;;15.90;13.77;;;13.20;99.90;;;;;;5055655;28;20207;-93
2022/10/07 10:18:40;;;;;;;15.97;14.37;;;13.10;99.90;;;;;;5055421;28;20221;-95
2022/10/07 10:21:28;;;;;;;17.17;14.43;;;13.10;99.90;;;;;;5055726;28;20664;-92
2022/10/07 10:24:00;;;;;;;19.13;14.10;;;13.10;99.90;;;;;;5056286;28;20201;-93
2022/10/07 10:26:54;;;;;;;16.57;13.97;;;13.10;99.90;;;;;;5056090;28;20644;-93
2022/10/07 10:29:41;;;;;;;17.00;14.23;;;13.10;99.90;;;;;;5056059;28;20212;-93
2022/10/07 10:32:48;;;;;;;17.03;13.90;;;13.10;99.90;;;;;;5057520;28;20556;-93
2022/10/07 10:35:26;;;;;;;15.00;13.40;;;13.10;99.90;;;;;;5035852;28;20304;-94
2022/10/07 10:38:28;;;;;;;18.77;14.17;;;13.10;99.90;;;;;;5035892;28;20203;-93
2022/10/07 10:41:09;;;;;;;18.00;14.30;;;13.00;99.90;;;;;;5036173;28;20204;-93
2022/10/07 10:44:07;;;;;;;15.47;13.77;;;13.00;99.90;;;;;;5029539;28;20601;-95
2022/10/07 10:46:54;;;;;;;16.73;13.47;;;13.00;99.90;;;;;;5055944;28;20294;-95
2022/10/07 10:49:35;;;;;;;17.50;13.87;;;13.00;99.90;;;;;;5055389;28;20212;-94
2022/10/07 10:52:28;;;;;;;18.43;14.50;;;12.90;99.90;;;;;;5037721;28;20798;-93
2022/10/07 10:55:16;;;;;;;15.33;13.73;;;12.90;99.90;;;;;;5055144;28;20227;-94
2022/10/07 10:57:57;;;;;;;19.03;14.30;;;12.90;99.90;;;;;;5054719;28;20208;-94
2022/10/07 11:00:39;;;;;;;16.70;13.47;;;12.80;99.90;;;;;;5037480;28;20227;-94
2022/10/07 11:03:33;;;;;;;14.73;12.97;;;12.90;99.90;;;;;;5053810;28;20240;-93
2022/10/07 11:06:08;;;;;;;18.73;13.37;;;12.80;99.90;;;;;;5054929;28;20657;-93
2022/10/07 11:08:40;;;;;;;14.37;12.20;;;12.80;99.90;;;;;;5055722;28;20212;-94
2022/10/07 11:11:16;;;;;;;14.50;13.00;;;12.80;99.90;;;;;;5038186;28;20231;-94
2022/10/07 11:13:53;;;;;;;16.93;13.03;;;12.80;99.90;;;;;;5058685;28;20671;-94
2022/10/07 11:16:29;;;;;;;18.37;13.93;;;12.70;99.90;;;;;;5054985;28;20214;-94
2022/10/07 11:19:08;;;;;;;15.00;13.40;;;12.80;99.90;;;;;;5054672;28;20239;-94
2022/10/07 11:21:42;;;;;;;16.07;13.73;;;12.70;99.90;;;;;;5054327;28;20223;-94
2022/10/07 11:24:18;;;;;;;18.10;14.27;;;12.70;99.90;;;;;;5054649;28;20207;-94
2022/10/07 11:26:52;;;;;;;16.37;13.37;;;12.70;99.90;;;;;;5054991;28;20208;-93
2022/10/07 11:29:32;;;;;;;16.03;14.33;;;12.70;99.90;;;;;;5055344;28;20219;-95
2022/10/07 11:32:12;;;;;;;16.80;14.73;;;12.70;99.90;;;;;;5054199;28;20203;-94
2022/10/07 11:34:54;;;;;;;16.63;14.27;;;12.70;99.90;;;;;;5055293;28;20243;-94
2022/10/07 11:37:32;;;;;;;16.60;14.07;;;12.70;99.90;;;;;;5054778;28;20199;-94
2022/10/07 11:40:05;;;;;;;17.00;15.20;;;12.70;99.90;;;;;;5054869;28;20214;-94
2022/10/07 11:42:42;;;;;;;16.77;14.23;;;12.60;99.90;;;;;;5048358;28;20247;-94
2022/10/07 11:45:19;;;;;;;18.07;13.90;;;12.60;99.90;;;;;;5034347;28;20264;-93
2022/10/07 11:47:53;;;;;;;17.77;14.90;;;12.70;99.90;;;;;;5054045;28;20219;-93
2022/10/07 11:50:30;;;;;;;16.30;14.60;;;12.70;99.90;;;;;;5054147;28;20574;-93
2022/10/07 11:53:08;;;;;;;17.23;14.63;;;12.70;99.90;;;;;;5036800;28;20212;-94
2022/10/07 11:55:44;;;;;;;18.87;15.33;;;12.60;99.90;;;;;;5054384;28;20214;-92
2022/10/07 11:58:27;;;;;;;18.80;15.17;;;12.60;99.90;;;;;;5058227;28;20299;-94
2022/10/07 12:01:34;;;;;;;17.33;14.97;;;12.60;99.90;;;;;;5057059;28;20208;-94
2022/10/07 12:04:38;;;;;;;18.40;15.13;;;12.60;99.90;;;;;;5066718;28;20235;-94
2022/10/07 12:07:37;;;;;;;19.47;14.73;;;12.60;99.90;;;;;;5058376;28;20212;-93
2022/10/07 12:10:24;;;;;;;16.47;14.70;;;12.50;99.90;;;;;;5057383;28;20232;-94
2022/10/07 12:13:03;;;;;;;19.13;15.23;;;12.60;99.90;;;;;;5036201;28;20201;-94
2022/10/07 12:15:37;;;;;;;19.27;15.33;;;12.60;99.90;;;;;;5035025;28;20205;-93
2022/10/07 12:18:28;;;;;;;18.27;15.20;;;12.50;99.90;;;;;;5037129;28;20656;-94
2022/10/07 12:21:08;;;;;;;17.80;15.20;;;12.50;99.90;;;;;;5049363;28;20243;-94
2022/10/07 12:23:47;;;;;;;18.40;15.93;;;12.50;99.90;;;;;;5056142;28;20704;-94
2022/10/07 12:26:45;;;;;;;19.87;16.53;;;12.50;99.90;;;;;;5056869;28;20240;-94
2022/10/07 12:29:57;;;;;;;19.80;17.60;;;12.50;99.90;;;;;;5054279;28;20212;-94
2022/10/07 12:32:49;;;;;;;19.23;17.13;;;12.40;99.90;;;;;;5022402;28;20580;-94
2022/10/07 12:35:42;;;;;;;19.60;17.10;;;12.30;99.90;;;;;;5040036;28;20216;-93
2022/10/07 12:38:30;;;;;;;21.63;17.87;;;12.30;99.90;;;;;;5058150;28;20215;-93
2022/10/07 12:41:34;;;;;;;23.40;18.00;;;12.30;99.90;;;;;;5057804;28;20219;-93
2022/10/07 12:44:18;;;;;;;22.13;18.60;;;12.30;99.90;;;;;;5058149;28;20236;-94
2022/10/07 12:46:53;;;;;;;21.63;17.50;;;12.30;99.90;;;;;;5057458;28;20211;-95
2022/10/07 12:49:35;;;;;;;20.53;18.30;;;12.30;99.90;;;;;;5058576;28;20212;-93
2022/10/07 12:52:10;;;;;;;25.90;19.23;;;12.30;99.90;;;;;;5058562;28;20212;-93
2022/10/07 12:54:48;;;;;;;20.87;18.20;;;12.30;99.90;;;;;;5058822;28;20254;-94
2022/10/07 12:57:25;;;;;;;24.03;18.87;;;12.40;99.90;;;;;;5058210;28;20208;-94
2022/10/07 13:00:01;;;;;;;22.90;18.80;;;12.30;99.90;;;;;;5040786;28;20526;-94
2022/10/07 13:03:20;;;;;;;22.17;19.07;;;12.30;99.90;;;;;;5037117;28;20213;-93
2022/10/07 13:06:29;;;;;;;21.73;18.93;;;12.30;99.90;;;;;;5056671;28;20216;-93
2022/10/07 13:09:43;;;;;;;20.57;18.03;;;12.30;99.90;;;;;;5070757;28;20200;-93
2022/10/07 13:12:24;;;;;;;22.80;18.83;;;12.20;99.90;;;;;;5076466;28;20196;-93
2022/10/07 13:15:11;;;;;;;25.60;18.33;;;12.30;99.90;;;;;;5058980;28;20203;-94
2022/10/07 13:17:50;;;;;;;21.23;18.97;;;12.20;99.90;;;;;;5059226;28;20260;-93
2022/10/07 13:20:37;;;;;;;20.50;18.30;;;12.20;99.90;;;;;;5029743;28;20650;-93